EDT,Max TemperatureF,Mean TemperatureF,Min TemperatureF,Max Dew PointF,MeanDew PointF,Min DewpointF,Max Humidity, Mean Humidity, Min Humidity, Max Sea Level PressureIn, Mean Sea Level PressureIn, Min Sea Level PressureIn, Max VisibilityMiles, Mean VisibilityMiles, Min VisibilityMiles, Max Wind SpeedMPH, Mean Wind SpeedMPH, Max Gust SpeedMPH,PrecipitationIn, CloudCover, Events, WindDirDegrees
2012-9-1,86,78,70,72,70,68,100,81,61,30.14,30.09,30.03,10,7,1,8,2,13,1.35,5,Rain-Thunderstorm,183
2012-9-2,81,75,68,72,70,67,100,85,69,30.07,30.03,29.94,10,8,2,8,2,12,0.01,5,Rain,126
2012-9-3,86,77,67,72,68,66,100,81,61,29.97,29.94,29.89,10,8,2,13,4,17,0.00,2,,140
2012-9-4,82,76,69,74,71,68,100,87,74,29.94,29.88,29.84,10,6,0,12,2,16,0.73,8,Fog-Rain-Thunderstorm,200
2012-9-5,85,77,68,70,67,64,100,76,51,29.94,29.88,29.83,10,8,1,8,2,12,0.00,4,,300
2012-9-6,87,76,65,68,66,62,100,73,45,29.94,29.90,29.86,10,5,0,13,2,18,0.00,2,Fog,234
2012-9-7,86,74,62,71,64,57,100,78,55,29.96,29.89,29.71,10,6,0,18,3,26,0.00,3,Fog-Thunderstorm,159
2012-9-8,75,65,54,65,59,50,97,75,53,29.89,29.72,29.57,10,8,1,24,5,33,0.69,6,Rain-Thunderstorm,281
2012-9-9,71,61,50,55,51,48,100,75,49,30.09,29.95,29.89,10,6,0,13,2,15,0.00,5,Fog,322
2012-9-10,73,59,45,52,47,44,100,71,41,30.23,30.17,30.09,10,7,1,9,2,14,0.00,2,,180
2012-9-11,77,61,45,54,48,44,100,68,36,30.32,30.27,30.24,10,6,0,8,1,12,0.00,1,Fog,190
2012-9-12,82,65,47,59,51,46,100,68,36,30.34,30.29,30.25,10,6,0,9,2,13,0.00,1,Fog,191
2012-9-13,84,69,53,62,56,52,100,70,40,30.34,30.28,30.23,10,7,1,7,1,15,0.00,1,,137
2012-9-14,81,65,49,62,56,48,100,73,45,30.30,30.23,30.17,10,8,2,20,4,25,T,3,Rain,39
2012-9-15,74,61,47,55,49,45,100,69,38,30.34,30.28,30.20,10,6,0,8,1,12,0.01,3,Fog,35
2012-9-16,75,60,44,51,45,43,100,66,31,30.22,30.17,30.09,10,7,0,9,1,13,0.00,1,Fog,100
2012-9-17,77,61,44,61,49,43,93,65,36,30.10,29.98,29.83,10,10,7,9,2,14,0.02,2,,157
2012-9-18,66,58,50,63,59,45,100,78,56,29.96,29.70,29.60,10,7,1,20,5,28,0.74,7,Rain,290
2012-9-19,65,52,38,45,39,35,93,64,34,30.19,30.13,29.99,10,10,10,9,2,14,0.00,0,,204
2012-9-20,74,57,39,51,44,38,96,65,33,30.13,30.03,29.95,10,10,5,13,5,20,T,1,,170
2012-9-21,73,64,55,55,51,43,93,65,37,29.99,29.93,29.72,10,10,10,18,3,30,0.15,5,Rain,167
2012-9-22,68,55,41,56,51,41,100,73,45,30.12,29.87,29.73,10,9,2,31,7,44,0.26,6,Rain,283
2012-9-23,63,51,38,46,41,35,100,68,36,30.23,30.18,30.13,10,7,0,14,3,20,0.00,5,Fog,320
2012-9-24,63,49,35,43,37,32,100,66,32,30.30,30.21,30.09,10,7,0,12,3,22,0.00,1,Fog,182
2012-9-25,67,54,40,54,46,38,89,69,48,30.13,30.06,30.01,10,10,7,17,5,26,T,5,Rain,147
2012-9-26,68,63,58,63,60,55,90,86,81,30.12,30.06,30.00,10,7,1,12,4,18,0.24,8,Rain-Thunderstorm,180
2012-9-27,63,59,54,63,58,52,100,93,86,30.19,30.15,30.12,10,4,0,8,3,13,0.39,8,Fog-Rain,13
2012-9-28,68,57,45,52,50,44,100,73,45,30.17,30.14,30.08,10,6,0,9,1,14,0.00,5,Fog,9
2012-9-29,69,56,42,53,45,41,100,73,45,30.13,30.06,29.95,10,5,0,9,1,13,0.00,4,Fog,287
2012-9-30,68,56,43,50,47,44,100,74,48,29.96,29.90,29.86,10,4,0,10,2,14,0.01,6,Fog,23